Pagina principală
METAR-TAF:

METAR-TAF

Aeroporturi :

Nadi, Fiji

Latitudine: 17-45S, longitudine: 177-27E, elevație: 13 m

Observații meteo curente

Raportul a fost făcut în urmă cu 54 de minute, la 11:00 UTC
Vânt 5 kt de la Est/Sud-est
Temperatură 25°C
Umiditate 89%
Presiune 1012 hPa
Vizibilitate de 10 km sau mai mult
Nori puțini la o înălțime de 3000 picior

METAR: NFFN 251100Z 12005KT 9999 FEW030 25/23 Q1012 NOSIG

Ora: 23:54 (11:54 UTC)

Prognoză

Raportul a fost făcut în urmă cu 43 de minute, la 11:11 UTC
Prognoză valabilă de la 25 ora 12 UTC la 26 ora 12 UTC
Vânt 5 kt de la Est/Sud-est
Vizibilitate de 10 km sau mai mult
Nori puțini la o înălțime de 3000 picior
Devenind
de la 25 ora 22 UTC la 25 ora 24 UTC
Vânt 10 kt de la Nord-vest
Devenind
de la 26 ora 04 UTC la 26 ora 06 UTC
Vânt 5 kt de la Est/Sud-est

TAF: NFFN 251111Z 2512/2612 12005KT 9999 FEW030 BECMG 2522/2524 32010KT BECMG 2604/2606 12005KT

Observații și prognoze meteo pentru peste 4.000 de aeroporturi (rapoarte METAR și TAF).

Stațiile disponibile sunt reprezentate pe hartă prin puncte galbene și roșii.

Țineți indicatorul mouse-ului pe punctul dorit pentru a vedea denumirea stației.

Apoi, faceți clic pentru a vedea observațiile și prognozele meteorologice.

Pentru a schimba harta: Pentru mărire, faceți clic pe butoanele verzi cu cruce neagră; pentru micșorare, pe butonul verde cu o liniuță; pentru hărți învecinate, pe săgețile verzi.


METAR-TAF: